Time;durP1;ratioP1;P1;durP2;ratioP2;P2;SDS_P1;SDS_P2;PMS_P1;PMS_P2;Temp;Humidity;BMP_temperature;BMP_pressure;BME280_temperature;BME280_humidity;BME280_pressure;Samples;Min_cycle;Max_cycle;Signal;HPM_P1;HPM_P2
2023/03/17 00:00:46;;;;;;;4.35;2.65;;;9.70;98.20;;;;;;10068311;28;20017;-61
2023/03/17 00:05:37;;;;;;;5.10;3.08;;;9.70;98.50;;;;;;10061802;28;20029;-62
2023/03/17 00:10:28;;;;;;;5.50;2.80;;;9.60;98.30;;;;;;10065557;28;20070;-61
2023/03/17 00:15:22;;;;;;;4.20;2.40;;;9.60;98.30;;;;;;10065120;28;20025;-61
2023/03/17 00:20:26;;;;;;;4.40;2.60;;;9.70;98.30;;;;;;10059224;28;20512;-60
2023/03/17 00:25:22;;;;;;;4.28;2.38;;;9.70;98.20;;;;;;10087581;28;20033;-60
2023/03/17 00:30:13;;;;;;;5.80;3.22;;;9.70;98.30;;;;;;10072382;28;20292;-60
2023/03/17 00:35:15;;;;;;;4.78;2.72;;;9.60;98.20;;;;;;10058092;28;20488;-61
2023/03/17 00:40:14;;;;;;;4.88;2.22;;;9.70;98.20;;;;;;10061496;28;20543;-60
2023/03/17 00:45:05;;;;;;;5.90;2.80;;;9.60;98.10;;;;;;10084459;28;20472;-61
2023/03/17 00:49:56;;;;;;;4.90;3.10;;;9.40;98.30;;;;;;10068050;28;20025;-61
2023/03/17 00:54:46;;;;;;;4.90;2.60;;;9.40;98.40;;;;;;10071416;28;20037;-61
2023/03/17 00:59:41;;;;;;;3.47;1.92;;;9.40;98.40;;;;;;10101457;28;20032;-60
2023/03/17 01:04:32;;;;;;;3.88;2.00;;;9.40;98.40;;;;;;10090269;28;20128;-61
2023/03/17 01:09:25;;;;;;;3.05;2.08;;;9.40;98.30;;;;;;10093372;28;20250;-60
2023/03/17 01:14:16;;;;;;;4.07;2.17;;;9.40;98.20;;;;;;10086807;28;20127;-60
2023/03/17 01:19:08;;;;;;;4.82;2.42;;;9.20;98.40;;;;;;10078255;28;20132;-59
2023/03/17 01:23:59;;;;;;;3.30;2.40;;;9.30;98.40;;;;;;10081019;28;20017;-59
2023/03/17 01:28:50;;;;;;;7.07;2.65;;;9.30;98.40;;;;;;10057458;28;20595;-61
2023/03/17 01:33:40;;;;;;;4.15;2.30;;;9.30;98.40;;;;;;10069430;28;20132;-61
2023/03/17 01:38:31;;;;;;;5.57;2.78;;;9.30;98.50;;;;;;10077368;28;20363;-60
2023/03/17 01:43:26;;;;;;;5.95;2.90;;;9.20;98.50;;;;;;10045846;28;20038;-59
2023/03/17 01:48:17;;;;;;;7.65;3.25;;;9.20;98.60;;;;;;10091258;28;20357;-60
2023/03/17 01:53:08;;;;;;;5.32;3.13;;;9.20;98.70;;;;;;10087110;28;20120;-60
2023/03/17 01:57:59;;;;;;;5.90;3.35;;;9.10;98.70;;;;;;10064625;28;20097;-59
2023/03/17 02:02:54;;;;;;;3.78;3.47;;;9.10;98.80;;;;;;10094411;28;20380;-61
2023/03/17 02:07:44;;;;;;;6.10;3.20;;;9.10;98.80;;;;;;10086558;28;20156;-60
2023/03/17 02:12:36;;;;;;;6.78;3.30;;;9.10;98.90;;;;;;10086496;28;20038;-59
2023/03/17 02:17:27;;;;;;;9.07;3.03;;;9.00;98.90;;;;;;10067690;28;20017;-59
2023/03/17 02:22:18;;;;;;;3.97;3.28;;;9.00;98.90;;;;;;10099035;28;20029;-60
2023/03/17 02:27:30;;;;;;;4.70;3.03;;;8.90;99.00;;;;;;10085518;28;20025;-60
2023/03/17 02:32:20;;;;;;;5.40;3.10;;;8.80;99.20;;;;;;10097321;28;20071;-60
2023/03/17 02:37:12;;;;;;;7.45;3.30;;;8.70;99.20;;;;;;10084643;28;20422;-62
2023/03/17 02:42:03;;;;;;;4.68;3.13;;;8.70;99.40;;;;;;10083619;28;20112;-61
2023/03/17 02:46:54;;;;;;;6.38;3.30;;;8.60;99.50;;;;;;10097430;28;20049;-63
2023/03/17 02:51:45;;;;;;;6.85;4.25;;;8.50;99.60;;;;;;10089043;28;20099;-63
2023/03/17 02:56:35;;;;;;;6.75;3.38;;;8.50;99.70;;;;;;10080684;28;20033;-61
2023/03/17 03:01:26;;;;;;;5.88;3.60;;;8.50;99.60;;;;;;10097595;28;20021;-61
2023/03/17 03:06:17;;;;;;;8.73;3.30;;;8.40;99.80;;;;;;10092783;28;20043;-60
2023/03/17 03:11:08;;;;;;;7.60;3.40;;;8.40;99.80;;;;;;10084382;28;20025;-62
2023/03/17 03:15:59;;;;;;;5.28;3.05;;;8.40;99.90;;;;;;10077243;28;20395;-64
2023/03/17 03:20:50;;;;;;;6.57;3.30;;;8.50;99.90;;;;;;10096293;28;20021;-61
2023/03/17 03:25:41;;;;;;;5.75;3.08;;;8.40;99.80;;;;;;10089738;28;20029;-60
2023/03/17 03:30:32;;;;;;;4.40;2.90;;;8.40;99.90;;;;;;10103980;28;20396;-60
2023/03/17 03:35:22;;;;;;;8.25;3.15;;;8.30;99.90;;;;;;10079404;28;20036;-59
2023/03/17 03:40:13;;;;;;;2.95;2.25;;;8.30;99.90;;;;;;10080752;28;20033;-62
2023/03/17 03:45:05;;;;;;;4.97;3.22;;;8.30;99.90;;;;;;10087026;28;20422;-60
2023/03/17 03:49:55;;;;;;;4.88;2.80;;;8.30;99.90;;;;;;10097981;28;20025;-59
2023/03/17 03:54:46;;;;;;;3.67;2.70;;;8.30;99.90;;;;;;10095431;28;20070;-61
2023/03/17 03:59:37;;;;;;;6.95;2.97;;;8.30;99.90;;;;;;10103498;28;20036;-61
2023/03/17 04:04:27;;;;;;;4.25;2.13;;;8.30;99.90;;;;;;10084903;28;20034;-59
2023/03/17 04:09:18;;;;;;;4.18;2.58;;;8.20;99.90;;;;;;10066286;28;20410;-60
2023/03/17 04:14:09;;;;;;;6.32;2.65;;;8.30;99.90;;;;;;10083774;28;20044;-61
2023/03/17 04:19:00;;;;;;;2.83;2.58;;;8.20;99.90;;;;;;10062177;28;20026;-60
2023/03/17 04:23:51;;;;;;;3.05;2.25;;;8.20;99.90;;;;;;10086778;28;20258;-61
2023/03/17 04:28:41;;;;;;;3.83;2.15;;;8.20;99.90;;;;;;10102107;28;20274;-60
2023/03/17 04:33:32;;;;;;;3.83;2.15;;;8.20;99.90;;;;;;10081318;28;20124;-61
2023/03/17 04:38:23;;;;;;;4.82;2.00;;;8.10;99.90;;;;;;10096753;28;20071;-61
2023/03/17 04:43:13;;;;;;;5.45;2.38;;;8.10;99.90;;;;;;10075013;28;20411;-60
2023/03/17 04:48:04;;;;;;;3.90;2.30;;;8.10;99.90;;;;;;10093319;28;20072;-59
2023/03/17 04:52:56;;;;;;;3.28;2.15;;;8.10;99.90;;;;;;10078626;28;20037;-62
2023/03/17 04:57:47;;;;;;;4.15;2.35;;;8.00;99.90;;;;;;10094255;28;20093;-59
2023/03/17 05:02:37;;;;;;;3.63;2.88;;;8.00;99.90;;;;;;10087120;28;20036;-58
2023/03/17 05:07:28;;;;;;;3.40;1.80;;;7.90;99.90;;;;;;10099778;28;20021;-59
2023/03/17 05:12:19;;;;;;;3.40;2.25;;;7.80;99.90;;;;;;10100319;28;20051;-59
2023/03/17 05:17:10;;;;;;;3.83;2.45;;;7.80;99.90;;;;;;10087327;28;20029;-59
2023/03/17 05:22:00;;;;;;;3.65;2.13;;;7.90;99.90;;;;;;10094005;28;20029;-59
2023/03/17 05:26:51;;;;;;;4.07;2.38;;;7.80;99.90;;;;;;10100296;28;20035;-60
2023/03/17 05:31:42;;;;;;;3.08;2.65;;;7.70;99.90;;;;;;10093955;28;20033;-62
2023/03/17 05:36:33;;;;;;;8.88;5.63;;;7.60;99.90;;;;;;10080257;28;20029;-61
2023/03/17 05:41:24;;;;;;;5.40;4.00;;;7.60;99.90;;;;;;10086527;28;20035;-61
2023/03/17 05:46:14;;;;;;;8.80;3.78;;;7.50;99.90;;;;;;10097628;28;20098;-60
2023/03/17 05:51:05;;;;;;;5.18;3.00;;;7.40;99.90;;;;;;10084846;28;20105;-60
2023/03/17 05:55:56;;;;;;;5.68;3.28;;;7.40;99.90;;;;;;10085717;28;20033;-60
2023/03/17 06:00:47;;;;;;;8.63;3.60;;;7.40;99.90;;;;;;10097336;28;20029;-60
2023/03/17 06:05:38;;;;;;;7.45;4.63;;;7.40;99.90;;;;;;10071958;28;20531;-61
2023/03/17 06:10:28;;;;;;;6.88;3.83;;;7.50;99.90;;;;;;10081837;28;20518;-61
2023/03/17 06:15:20;;;;;;;6.25;3.92;;;7.40;99.90;;;;;;10074355;28;20039;-59
2023/03/17 06:20:12;;;;;;;6.90;4.05;;;7.60;99.90;;;;;;10056749;28;20025;-60
2023/03/17 06:25:03;;;;;;;9.75;4.43;;;7.60;99.90;;;;;;10098611;28;20034;-63
2023/03/17 06:29:53;;;;;;;6.35;4.03;;;7.70;99.90;;;;;;10099322;28;20508;-61
2023/03/17 06:34:44;;;;;;;6.15;3.28;;;7.70;99.90;;;;;;10072723;28;20037;-60
2023/03/17 06:39:36;;;;;;;5.85;3.08;;;7.70;99.90;;;;;;10093333;28;20026;-62
2023/03/17 06:44:26;;;;;;;4.65;2.45;;;7.70;99.90;;;;;;10076361;28;20128;-61
2023/03/17 06:49:17;;;;;;;5.35;2.30;;;7.80;99.90;;;;;;10097258;28;20154;-60
2023/03/17 06:54:08;;;;;;;4.47;2.53;;;7.90;99.90;;;;;;10083766;28;20041;-63
2023/03/17 06:58:58;;;;;;;6.07;2.58;;;7.90;99.90;;;;;;10098167;28;20027;-59
2023/03/17 07:03:49;;;;;;;4.43;2.92;;;7.90;99.90;;;;;;10104662;28;20041;-62
2023/03/17 07:08:40;;;;;;;3.25;2.30;;;8.10;99.90;;;;;;10104642;28;20032;-60
2023/03/17 07:13:34;;;;;;;4.20;2.63;;;8.20;99.90;;;;;;10104670;28;20028;-60
2023/03/17 07:18:25;;;;;;;4.47;2.40;;;8.30;99.90;;;;;;10080333;28;20025;-58
2023/03/17 07:23:19;;;;;;;2.83;2.10;;;8.30;99.90;;;;;;10104725;28;20116;-60
2023/03/17 07:28:10;;;;;;;3.60;2.03;;;8.40;99.90;;;;;;10068451;28;20021;-59
2023/03/17 07:33:01;;;;;;;4.18;1.60;;;8.50;99.90;;;;;;10053583;28;20029;-59
2023/03/17 07:37:52;;;;;;;4.28;2.65;;;8.60;99.90;;;;;;10068924;28;20456;-61
2023/03/17 07:42:44;;;;;;;2.55;1.73;;;8.60;99.90;;;;;;10080018;28;20036;-59
2023/03/17 07:47:34;;;;;;;4.00;1.80;;;8.70;99.90;;;;;;10073582;28;20575;-60
2023/03/17 07:52:25;;;;;;;2.85;1.85;;;8.90;99.90;;;;;;10094929;28;20123;-59
2023/03/17 07:57:16;;;;;;;4.55;2.50;;;9.10;99.90;;;;;;10099314;28;20100;-61
2023/03/17 08:02:09;;;;;;;3.40;2.80;;;9.30;99.90;;;;;;10103545;28;20104;-60
2023/03/17 08:07:00;;;;;;;6.32;2.30;;;9.30;99.90;;;;;;10101820;28;20035;-60
2023/03/17 08:11:51;;;;;;;10.00;2.58;;;9.30;99.90;;;;;;10103040;28;20041;-59
2023/03/17 08:16:42;;;;;;;3.47;2.08;;;9.30;99.90;;;;;;10090784;28;20524;-60
2023/03/17 08:21:32;;;;;;;5.68;2.30;;;9.40;99.90;;;;;;10093508;28;20112;-60
2023/03/17 08:26:24;;;;;;;3.28;2.53;;;9.60;99.90;;;;;;10103181;28;20029;-61
2023/03/17 08:31:17;;;;;;;4.70;2.38;;;9.80;99.90;;;;;;10100494;28;20091;-59
2023/03/17 08:36:10;;;;;;;8.25;2.90;;;10.00;99.90;;;;;;10078301;28;20110;-60
2023/03/17 08:41:03;;;;;;;7.25;2.83;;;10.30;99.90;;;;;;10089122;28;20101;-61
2023/03/17 08:46:05;;;;;;;3.85;2.40;;;10.40;99.90;;;;;;10096346;28;20061;-63
2023/03/17 08:50:56;;;;;;;4.97;2.83;;;10.80;99.90;;;;;;10078387;28;20022;-61
2023/03/17 08:55:47;;;;;;;3.22;2.40;;;10.80;99.90;;;;;;10060897;28;20026;-62
2023/03/17 09:00:39;;;;;;;5.18;2.90;;;10.90;99.90;;;;;;10093603;28;20024;-61
2023/03/17 09:05:30;;;;;;;5.35;2.67;;;11.10;99.90;;;;;;10101095;28;20107;-61
2023/03/17 09:10:22;;;;;;;5.40;3.17;;;11.10;99.90;;;;;;10100946;28;20108;-61
2023/03/17 09:15:13;;;;;;;6.72;3.05;;;11.20;99.80;;;;;;10097084;28;20099;-60
2023/03/17 09:20:05;;;;;;;5.90;3.22;;;11.30;99.60;;;;;;10084457;28;20455;-64
2023/03/17 09:24:56;;;;;;;3.03;2.15;;;11.60;99.50;;;;;;10072628;28;20442;-61
2023/03/17 09:29:46;;;;;;;3.78;2.58;;;11.90;99.30;;;;;;10055856;28;20101;-63
2023/03/17 09:34:37;;;;;;;3.97;2.45;;;12.00;99.10;;;;;;10052997;28;20148;-61
2023/03/17 09:39:27;;;;;;;5.63;3.13;;;12.10;99.10;;;;;;10071446;28;20022;-61
2023/03/17 09:44:29;;;;;;;5.97;3.33;;;12.20;98.90;;;;;;10079459;28;20174;-62
2023/03/17 09:49:51;;;;;;;5.00;2.63;;;12.50;98.70;;;;;;10099356;28;20068;-63
2023/03/17 09:54:42;;;;;;;8.32;3.47;;;12.70;98.60;;;;;;10073355;28;20049;-61
2023/03/17 09:59:40;;;;;;;3.92;2.85;;;12.80;98.60;;;;;;10100047;28;20540;-63
2023/03/17 10:04:31;;;;;;;5.80;2.70;;;12.80;98.40;;;;;;10100199;28;20036;-61
2023/03/17 10:09:33;;;;;;;4.60;2.72;;;12.90;98.30;;;;;;10098844;28;20036;-63
2023/03/17 10:14:46;;;;;;;9.43;3.08;;;13.00;98.20;;;;;;10097575;28;20426;-61
2023/03/17 10:19:51;;;;;;;6.07;3.17;;;13.00;98.00;;;;;;10059530;28;20030;-62
2023/03/17 10:24:46;;;;;;;5.22;3.03;;;13.30;97.90;;;;;;10098318;28;20052;-63
2023/03/17 10:29:37;;;;;;;5.65;2.60;;;13.60;97.70;;;;;;10098958;28;20032;-62
2023/03/17 10:34:31;;;;;;;2.75;2.10;;;13.90;97.60;;;;;;10069868;28;20041;-63
2023/03/17 10:39:23;;;;;;;6.13;2.80;;;14.10;97.30;;;;;;10084899;28;20458;-61
2023/03/17 10:44:37;;;;;;;3.58;2.15;;;14.40;97.10;;;;;;10096842;28;20197;-63
2023/03/17 10:49:35;;;;;;;4.47;2.40;;;14.70;96.80;;;;;;10104555;28;20502;-62
2023/03/17 10:54:27;;;;;;;4.85;2.97;;;14.90;96.70;;;;;;10082684;28;20029;-60
2023/03/17 10:59:26;;;;;;;10.77;5.15;;;15.10;96.60;;;;;;10106286;28;20511;-61
2023/03/17 11:04:36;;;;;;;3.80;1.98;;;15.20;96.40;;;;;;10106031;28;20048;-61
2023/03/17 11:09:34;;;;;;;5.63;2.58;;;15.30;95.90;;;;;;10091875;28;20083;-60
2023/03/17 11:14:29;;;;;;;4.60;2.75;;;15.60;95.90;;;;;;10102341;28;20120;-62
2023/03/17 11:19:42;;;;;;;6.22;3.38;;;15.70;95.70;;;;;;10080649;28;20404;-61
2023/03/17 11:24:40;;;;;;;3.70;2.50;;;15.80;95.50;;;;;;10089877;28;20525;-62
2023/03/17 11:30:09;;;;;;;4.72;2.78;;;16.00;95.30;;;;;;10101642;28;20017;-59
2023/03/17 11:35:05;;;;;;;4.00;2.70;;;16.20;94.60;;;;;;10056770;28;20080;-60
2023/03/17 11:40:04;;;;;;;6.18;3.22;;;16.40;94.90;;;;;;10054332;28;20033;-60
2023/03/17 11:45:20;;;;;;;4.72;2.70;;;16.50;94.60;;;;;;10075003;28;20072;-61
2023/03/17 11:50:23;;;;;;;;;;;16.40;94.10;;;;;;10071062;28;20092;-59
2023/03/17 11:55:27;;;;;;;5.35;2.20;;;16.30;94.10;;;;;;10080324;28;19921;-60
2023/03/17 12:00:40;;;;;;;7.25;3.20;;;16.40;94.20;;;;;;10072228;28;20013;-59
2023/03/17 12:05:33;;;;;;;6.40;2.90;;;16.40;93.90;;;;;;10056660;28;20063;-61
2023/03/17 12:10:43;;;;;;;4.68;2.55;;;16.50;93.80;;;;;;10061918;28;20030;-60
2023/03/17 12:15:42;;;;;;;5.40;2.40;;;16.60;93.50;;;;;;10085240;28;20044;-59
2023/03/17 12:20:58;;;;;;;4.80;2.10;;;16.80;93.20;;;;;;10075106;28;20024;-62
2023/03/17 12:26:03;;;;;;;4.22;2.35;;;17.00;93.00;;;;;;10090830;28;20037;-58
2023/03/17 12:31:04;;;;;;;5.63;2.00;;;17.40;92.70;;;;;;10067937;28;20068;-60
2023/03/17 12:35:57;;;;;;;2.92;1.90;;;17.70;92.40;;;;;;10073096;28;20498;-59
2023/03/17 12:41:06;;;;;;;2.33;1.42;;;18.00;92.10;;;;;;10088643;28;20040;-60
2023/03/17 12:46:27;;;;;;;5.03;2.35;;;18.10;91.50;;;;;;10075738;28;20054;-60
2023/03/17 12:51:47;;;;;;;5.15;2.20;;;18.20;91.50;;;;;;10076737;28;20902;-60
2023/03/17 12:56:45;;;;;;;3.28;1.83;;;18.40;91.40;;;;;;10083971;28;20033;-60
2023/03/17 13:01:44;;;;;;;3.50;2.13;;;18.50;91.20;;;;;;10085207;28;20045;-60
2023/03/17 13:06:42;;;;;;;3.50;2.53;;;18.40;91.10;;;;;;10092519;28;20044;-62
2023/03/17 13:11:36;;;;;;;3.72;1.92;;;18.30;90.90;;;;;;10084263;28;20304;-60
2023/03/17 13:16:32;;;;;;;4.43;2.13;;;18.30;90.70;;;;;;10077958;28;20517;-60
2023/03/17 13:21:25;;;;;;;3.33;1.90;;;18.80;90.50;;;;;;10080072;28;20032;-59
2023/03/17 13:26:21;;;;;;;5.72;2.97;;;19.10;90.20;;;;;;10080679;28;20037;-59
2023/03/17 13:31:30;;;;;;;7.90;3.58;;;19.20;89.60;;;;;;10065494;28;20067;-60
2023/03/17 13:36:48;;;;;;;5.07;2.42;;;19.20;88.40;;;;;;10083194;28;20068;-59
2023/03/17 13:42:05;;;;;;;4.38;1.98;;;19.10;88.40;;;;;;10051979;28;20997;-60
2023/03/17 13:47:24;;;;;;;5.90;2.00;;;19.10;87.50;;;;;;10043756;28;20041;-58
2023/03/17 13:52:24;;;;;;;3.35;1.90;;;19.20;87.60;;;;;;10073703;28;20041;-58
2023/03/17 13:57:21;;;;;;;3.88;2.42;;;19.40;87.40;;;;;;10069853;22;20038;-65
2023/03/17 14:02:18;;;;;;;3.13;1.75;;;19.10;86.90;;;;;;10055929;28;20036;-65
2023/03/17 14:07:17;;;;;;;3.90;2.30;;;18.70;86.70;;;;;;10047164;28;20021;-63
2023/03/17 14:12:32;;;;;;;3.42;2.13;;;18.40;86.10;;;;;;10063281;28;20554;-64
2023/03/17 14:17:26;;;;;;;;;;;18.40;86.00;;;;;;10052604;28;20501;-67
2023/03/17 14:22:22;;;;;;;3.92;2.28;;;18.20;85.80;;;;;;10053945;28;19909;-65
2023/03/17 14:27:14;;;;;;;4.93;1.90;;;18.30;86.00;;;;;;10061380;28;20033;-63
2023/03/17 14:32:10;;;;;;;3.00;1.88;;;18.50;85.80;;;;;;10049431;28;20096;-64
2023/03/17 14:37:03;;;;;;;3.53;1.88;;;18.40;85.60;;;;;;10061496;28;20036;-63
2023/03/17 14:41:58;;;;;;;2.90;1.73;;;18.20;85.40;;;;;;10056413;28;20017;-64
2023/03/17 14:46:49;;;;;;;5.75;2.15;;;18.00;85.40;;;;;;10055977;28;20033;-65
2023/03/17 14:51:40;;;;;;;3.20;1.67;;;17.90;85.60;;;;;;10054758;28;20508;-65
2023/03/17 14:56:36;;;;;;;4.70;2.30;;;17.70;85.60;;;;;;10033488;28;20049;-63
2023/03/17 15:01:38;;;;;;;3.50;1.80;;;17.70;85.40;;;;;;10056407;28;20152;-68
2023/03/17 15:06:30;;;;;;;2.60;1.85;;;17.70;85.40;;;;;;10070175;22;20077;-60
2023/03/17 15:11:26;;;;;;;3.58;1.63;;;17.70;85.40;;;;;;10071627;28;20498;-60
2023/03/17 15:16:28;;;;;;;2.63;1.70;;;17.70;85.60;;;;;;10067363;28;20029;-59
2023/03/17 15:21:28;;;;;;;4.75;2.25;;;17.70;85.40;;;;;;10075199;28;20025;-62
2023/03/17 15:26:22;;;;;;;4.13;2.50;;;17.70;85.70;;;;;;10083380;28;20014;-61
2023/03/17 15:31:13;;;;;;;3.75;2.22;;;17.60;85.90;;;;;;10075998;28;20041;-60
2023/03/17 15:36:04;;;;;;;3.47;1.90;;;17.50;86.70;;;;;;10098788;28;20042;-63
2023/03/17 15:40:55;;;;;;;4.75;2.00;;;17.50;86.10;;;;;;10079949;28;20025;-60
2023/03/17 15:45:53;;;;;;;4.05;2.60;;;17.50;86.10;;;;;;10076587;28;20071;-59
2023/03/17 15:50:46;;;;;;;4.18;2.17;;;17.60;86.10;;;;;;10070767;28;20029;-60
2023/03/17 15:55:36;;;;;;;3.58;2.60;;;17.60;86.30;;;;;;10092412;28;20033;-60
2023/03/17 16:00:28;;;;;;;4.53;2.10;;;17.60;86.40;;;;;;10067753;28;20024;-64
2023/03/17 16:05:24;;;;;;;3.92;1.70;;;17.50;86.60;;;;;;10074069;28;20415;-60
2023/03/17 16:10:17;;;;;;;8.93;3.40;;;17.50;86.90;;;;;;10074984;28;20049;-60
2023/03/17 16:15:17;;;;;;;5.32;2.72;;;17.40;87.10;;;;;;10058270;28;20068;-63
2023/03/17 16:20:22;;;;;;;5.35;3.45;;;17.40;87.20;;;;;;10057746;28;20569;-60
2023/03/17 16:25:28;;;;;;;3.85;2.33;;;17.30;87.50;;;;;;10075317;28;20395;-62
2023/03/17 16:30:30;;;;;;;6.50;2.22;;;17.20;87.80;;;;;;10068553;28;20495;-63
2023/03/17 16:35:24;;;;;;;3.35;1.90;;;17.20;88.00;;;;;;10068703;28;20034;-63
2023/03/17 16:40:36;;;;;;;3.30;2.30;;;17.10;88.30;;;;;;10084233;28;20156;-62
2023/03/17 16:45:28;;;;;;;4.97;2.75;;;17.10;88.60;;;;;;10077772;28;20530;-61
2023/03/17 16:50:21;;;;;;;6.60;2.83;;;17.10;88.60;;;;;;10082456;28;20057;-59
2023/03/17 16:55:14;;;;;;;5.88;2.55;;;17.00;88.70;;;;;;10072184;28;20585;-64
2023/03/17 17:00:06;;;;;;;6.38;2.92;;;16.90;88.90;;;;;;10067779;28;20033;-60
2023/03/17 17:04:57;;;;;;;3.65;2.50;;;16.80;89.00;;;;;;10082415;28;20059;-60
2023/03/17 17:09:48;;;;;;;2.63;1.60;;;16.80;89.20;;;;;;10085709;28;20104;-59
2023/03/17 17:14:38;;;;;;;4.03;2.08;;;16.70;89.20;;;;;;10085516;28;20413;-58
2023/03/17 17:19:29;;;;;;;4.70;1.85;;;16.70;89.20;;;;;;10088990;28;20456;-59
2023/03/17 17:24:20;;;;;;;5.55;2.45;;;16.60;89.30;;;;;;10087951;28;20037;-61
2023/03/17 17:29:11;;;;;;;4.50;2.65;;;16.60;89.40;;;;;;10044194;28;20027;-59
2023/03/17 17:34:01;;;;;;;8.75;3.28;;;16.60;89.30;;;;;;10058403;28;20041;-59
2023/03/17 17:38:52;;;;;;;7.68;3.78;;;16.60;89.30;;;;;;10075777;28;20510;-59
2023/03/17 17:43:44;;;;;;;2.65;1.55;;;16.60;89.30;;;;;;10063569;28;20037;-59
2023/03/17 17:48:35;;;;;;;3.05;1.85;;;16.40;89.20;;;;;;10088083;28;20033;-61
2023/03/17 17:53:26;;;;;;;3.67;1.92;;;16.40;89.00;;;;;;10083559;28;20515;-59
2023/03/17 17:58:22;;;;;;;4.15;2.08;;;16.30;88.70;;;;;;10078074;28;20035;-58
2023/03/17 18:03:13;;;;;;;3.67;1.65;;;16.30;88.50;;;;;;10078366;28;20033;-60
2023/03/17 18:08:05;;;;;;;3.17;1.60;;;16.20;88.20;;;;;;10079485;28;20052;-60
2023/03/17 18:12:56;;;;;;;3.47;1.70;;;16.10;88.00;;;;;;10087203;28;20126;-59
2023/03/17 18:17:47;;;;;;;3.80;1.73;;;16.00;87.70;;;;;;10086641;28;20013;-60
2023/03/17 18:22:38;;;;;;;3.95;1.90;;;15.90;87.60;;;;;;10080883;28;20040;-58
2023/03/17 18:27:30;;;;;;;4.57;1.88;;;15.90;87.50;;;;;;10084395;28;20101;-60
2023/03/17 18:32:20;;;;;;;3.17;1.80;;;15.80;87.40;;;;;;10086412;28;20029;-61
2023/03/17 18:37:13;;;;;;;6.38;2.42;;;15.80;87.20;;;;;;10070645;28;20040;-59
2023/03/17 18:42:04;;;;;;;6.28;2.13;;;15.80;87.00;;;;;;10085342;28;20468;-59
2023/03/17 18:46:55;;;;;;;3.55;2.20;;;15.80;87.50;;;;;;10076727;28;20108;-58
2023/03/17 18:51:46;;;;;;;4.75;2.00;;;15.80;86.70;;;;;;10082103;28;20037;-60
2023/03/17 18:56:37;;;;;;;5.28;1.58;;;15.70;86.50;;;;;;10092879;28;20025;-60
2023/03/17 19:01:27;;;;;;;3.95;1.52;;;15.80;86.50;;;;;;10082373;28;20026;-60
2023/03/17 19:06:20;;;;;;;2.58;1.58;;;15.70;86.10;;;;;;10087361;28;20079;-61
2023/03/17 19:11:13;;;;;;;4.15;1.48;;;15.80;85.90;;;;;;10090633;28;20018;-60
2023/03/17 19:16:06;;;;;;;5.28;2.20;;;15.90;85.60;;;;;;10099771;28;20033;-59
2023/03/17 19:20:57;;;;;;;2.85;1.27;;;16.00;85.30;;;;;;10079821;28;20026;-61
2023/03/17 19:25:48;;;;;;;4.32;1.90;;;15.90;85.00;;;;;;10093438;28;20515;-60
2023/03/17 19:30:40;;;;;;;4.25;1.98;;;15.90;84.90;;;;;;10094310;28;20032;-60
2023/03/17 19:35:31;;;;;;;4.65;1.77;;;15.70;84.70;;;;;;10082832;28;20025;-59
2023/03/17 19:40:22;;;;;;;2.75;1.80;;;15.60;84.60;;;;;;10085624;28;20395;-60
2023/03/17 19:45:12;;;;;;;4.82;2.42;;;15.60;84.70;;;;;;10087704;28;20044;-60
2023/03/17 19:50:03;;;;;;;8.32;3.35;;;15.60;84.50;;;;;;10087366;28;20033;-64
2023/03/17 19:54:55;;;;;;;7.50;3.17;;;15.50;84.60;;;;;;10093459;28;20037;-65
2023/03/17 19:59:46;;;;;;;8.73;3.35;;;15.50;84.60;;;;;;10083391;28;20037;-62
2023/03/17 20:04:37;;;;;;;7.75;2.75;;;15.50;84.70;;;;;;10077736;28;20412;-59
2023/03/17 20:09:28;;;;;;;4.55;2.60;;;15.40;84.90;;;;;;10080992;28;20029;-60
2023/03/17 20:14:19;;;;;;;5.00;2.70;;;15.40;85.60;;;;;;10093588;28;20033;-58
2023/03/17 20:19:10;;;;;;;5.30;2.35;;;15.30;84.90;;;;;;10094427;28;20051;-62
2023/03/17 20:24:01;;;;;;;7.57;3.72;;;15.30;85.10;;;;;;10087982;28;20021;-63
2023/03/17 20:28:52;;;;;;;6.55;3.40;;;15.20;85.20;;;;;;10090307;28;20028;-64
2023/03/17 20:33:43;;;;;;;36.53;19.92;;;15.20;85.40;;;;;;10084486;28;20041;-63
2023/03/17 20:38:37;;;;;;;48.20;23.17;;;15.10;85.70;;;;;;10081462;28;20396;-63
2023/03/17 20:43:30;;;;;;;25.17;13.38;;;15.00;85.90;;;;;;10080012;28;20489;-63
2023/03/17 20:48:21;;;;;;;15.38;5.85;;;15.00;86.10;;;;;;10083537;28;20060;-63
2023/03/17 20:53:12;;;;;;;6.88;4.00;;;14.90;86.30;;;;;;10083489;28;20510;-60
2023/03/17 20:58:03;;;;;;;6.00;3.35;;;14.90;86.50;;;;;;10088754;28;20017;-61
2023/03/17 21:02:53;;;;;;;5.05;3.72;;;14.90;86.50;;;;;;10049981;28;20041;-60
2023/03/17 21:07:45;;;;;;;4.60;2.67;;;14.90;86.70;;;;;;10058371;28;20107;-59
2023/03/17 21:12:36;;;;;;;7.20;3.10;;;14.80;86.70;;;;;;10051620;28;20253;-60
2023/03/17 21:17:27;;;;;;;5.65;2.65;;;14.70;86.80;;;;;;10086274;28;20403;-60
2023/03/17 21:22:18;;;;;;;6.72;2.80;;;14.70;86.90;;;;;;10081084;28;20060;-64
2023/03/17 21:27:10;;;;;;;7.15;2.42;;;14.70;87.00;;;;;;10075826;28;20513;-63
2023/03/17 21:32:01;;;;;;;5.60;2.50;;;14.60;87.10;;;;;;10080975;28;20032;-62
2023/03/17 21:36:52;;;;;;;3.33;2.15;;;14.60;87.10;;;;;;10090816;28;20021;-61
2023/03/17 21:41:43;;;;;;;6.82;2.35;;;14.60;87.10;;;;;;10083034;28;20193;-62
2023/03/17 21:46:34;;;;;;;2.80;2.08;;;14.50;87.10;;;;;;10078594;28;20049;-62
2023/03/17 21:51:25;;;;;;;3.63;2.10;;;14.50;87.00;;;;;;10078364;28;20041;-59
2023/03/17 21:56:16;;;;;;;7.35;3.00;;;14.50;87.00;;;;;;10080357;28;20033;-60
2023/03/17 22:01:07;;;;;;;4.60;2.25;;;14.50;87.00;;;;;;10088595;28;20039;-60
2023/03/17 22:05:58;;;;;;;5.70;2.13;;;14.40;87.10;;;;;;10081761;28;20409;-61
2023/03/17 22:10:49;;;;;;;4.80;2.38;;;14.40;87.10;;;;;;10077692;28;20086;-59
2023/03/17 22:15:40;;;;;;;4.63;2.40;;;14.30;87.10;;;;;;10089586;28;20040;-60
2023/03/17 22:20:30;;;;;;;4.03;2.10;;;14.30;87.20;;;;;;10087686;28;20040;-59
2023/03/17 22:25:22;;;;;;;3.42;2.10;;;14.20;87.20;;;;;;10076514;28;20025;-61
2023/03/17 22:30:13;;;;;;;5.53;1.85;;;14.20;87.20;;;;;;10082617;28;20021;-61
2023/03/17 22:35:05;;;;;;;2.83;1.63;;;14.20;87.20;;;;;;10086607;28;20029;-59
2023/03/17 22:40:01;;;;;;;3.63;1.85;;;14.20;87.20;;;;;;10074185;28;20100;-59
2023/03/17 22:44:51;;;;;;;3.28;1.80;;;14.20;87.00;;;;;;10080584;28;20036;-61
2023/03/17 22:49:42;;;;;;;2.67;1.30;;;14.20;86.90;;;;;;10071157;28;20037;-61
2023/03/17 22:54:33;;;;;;;2.65;1.60;;;14.30;86.80;;;;;;10079520;28;20045;-64
2023/03/17 22:59:23;;;;;;;3.63;1.83;;;14.30;86.70;;;;;;10087925;28;20476;-59
2023/03/17 23:04:14;;;;;;;3.40;1.70;;;14.20;86.60;;;;;;10083846;28;20116;-59
2023/03/17 23:09:04;;;;;;;6.10;1.70;;;14.20;86.60;;;;;;10078010;28;20041;-59
2023/03/17 23:13:56;;;;;;;3.45;1.60;;;14.20;86.60;;;;;;10088381;28;20713;-59
2023/03/17 23:18:47;;;;;;;4.38;1.77;;;14.10;86.50;;;;;;10078820;28;20582;-59
2023/03/17 23:23:37;;;;;;;3.58;2.10;;;14.10;86.40;;;;;;10074198;28;20143;-59
2023/03/17 23:28:28;;;;;;;4.40;1.50;;;14.00;86.50;;;;;;10078080;28;20029;-58
2023/03/17 23:33:21;;;;;;;4.82;1.65;;;13.90;86.50;;;;;;10071199;28;20435;-59
2023/03/17 23:38:12;;;;;;;5.00;1.95;;;13.90;86.50;;;;;;10090409;28;20049;-59
2023/03/17 23:43:04;;;;;;;5.22;2.15;;;13.90;86.60;;;;;;10084079;28;20037;-59
2023/03/17 23:47:56;;;;;;;7.22;4.10;;;13.80;86.50;;;;;;10075331;28;20124;-58
2023/03/17 23:52:48;;;;;;;6.07;2.13;;;13.80;86.60;;;;;;10079990;28;20124;-59
2023/03/17 23:57:38;;;;;;;3.75;2.50;;;13.80;86.40;;;;;;10087320;28;20431;-60
